createdAt,value
2022-09-15T00:00:50.350Z,1.60
2022-09-15T00:10:50.380Z,2.30
2022-09-15T00:20:50.702Z,1.80
2022-09-15T00:30:50.768Z,1.90
2022-09-15T00:40:50.973Z,1.40
2022-09-15T00:50:51.000Z,2.20
2022-09-15T01:00:51.337Z,2.50
2022-09-15T01:10:51.362Z,2.40
2022-09-15T01:20:51.638Z,2.30
2022-09-15T01:30:51.818Z,2.10
2022-09-15T01:40:51.898Z,2.50
2022-09-15T01:50:51.917Z,2.30
2022-09-15T02:00:52.292Z,2.30
2022-09-15T02:10:52.316Z,1.90
2022-09-15T02:20:52.606Z,1.80
2022-09-15T02:30:52.626Z,2.10
2022-09-15T02:40:53.057Z,1.80
2022-09-15T02:50:53.146Z,1.50
2022-09-15T03:00:53.343Z,2.30
2022-09-15T03:10:53.376Z,3.20
2022-09-15T03:20:53.669Z,3.30
2022-09-15T03:30:53.704Z,6.60
2022-09-15T03:40:54.005Z,1.90
2022-09-15T03:50:54.032Z,2.30
2022-09-15T04:00:54.469Z,2.30
2022-09-15T04:10:54.484Z,2.50
2022-09-15T04:20:54.813Z,1.70
2022-09-15T04:30:54.843Z,1.70
2022-09-15T04:40:55.179Z,2.10
2022-09-15T04:50:55.202Z,1.60
2022-09-15T05:00:55.708Z,2.60
2022-09-15T05:10:55.576Z,2.70
2022-09-15T05:20:55.952Z,2.30
2022-09-15T05:30:56.040Z,1.30
2022-09-15T05:40:56.210Z,2.10
2022-09-15T05:50:56.229Z,2.10
2022-09-15T06:00:56.572Z,2.40
2022-09-15T06:10:56.601Z,1.90
2022-09-15T06:20:56.912Z,2.40
2022-09-15T06:30:56.921Z,3.60
2022-09-15T06:40:57.258Z,3.80
2022-09-15T06:50:57.265Z,3.60
2022-09-15T07:00:57.608Z,3.00
2022-09-15T07:10:57.639Z,2.40
2022-09-15T07:20:57.962Z,2.20
2022-09-15T07:30:57.981Z,1.80
2022-09-15T07:40:58.198Z,2.40
2022-09-15T07:50:58.420Z,2.50
2022-09-15T08:00:58.816Z,2.60
2022-09-15T08:10:58.856Z,2.60
2022-09-15T08:20:59.220Z,3.00
2022-09-15T08:30:59.308Z,3.10
2022-09-15T08:40:59.471Z,3.70
2022-09-15T08:50:59.488Z,3.00
2022-09-15T09:00:59.798Z,3.70
2022-09-15T09:10:59.842Z,2.50
2022-09-15T09:21:00.153Z,2.90
2022-09-15T09:31:00.252Z,2.10
2022-09-15T09:41:02.500Z,2.60
2022-09-15T09:51:00.453Z,2.60
2022-09-15T10:01:00.764Z,2.10
2022-09-15T10:11:00.790Z,1.90
2022-09-15T10:21:01.340Z,1.80
2022-09-15T10:31:01.169Z,1.40
2022-09-15T10:41:02.490Z,2.00
2022-09-15T10:51:01.512Z,1.80
2022-09-15T11:01:01.876Z,1.30
2022-09-15T11:11:01.974Z,1.80
2022-09-15T11:21:02.252Z,1.50
2022-09-15T11:31:02.311Z,2.10
2022-09-15T11:41:02.496Z,2.20
2022-09-15T11:51:02.523Z,1.50
2022-09-15T12:01:02.850Z,1.70
2022-09-15T12:11:02.878Z,1.70
2022-09-15T12:21:03.201Z,1.40
2022-09-15T12:31:03.284Z,1.30
2022-09-15T12:41:03.349Z,1.60
2022-09-15T12:51:03.375Z,1.90
2022-09-15T13:01:17.467Z,1.30
2022-09-15T13:11:04.827Z,1.10
2022-09-15T13:21:03.844Z,1.50
2022-09-15T13:31:04.206Z,1.10
2022-09-15T13:41:04.256Z,0.90
2022-09-15T13:51:04.564Z,1.70
2022-09-15T14:01:04.640Z,0.90
2022-09-15T14:11:04.815Z,1.20
2022-09-15T14:21:04.841Z,0.80
2022-09-15T14:31:05.161Z,1.10
2022-09-15T14:41:05.208Z,1.00
2022-09-15T14:51:05.507Z,1.20
2022-09-15T15:01:05.562Z,1.60
2022-09-15T15:11:05.870Z,1.00
2022-09-15T15:21:05.899Z,1.10
2022-09-15T15:31:06.222Z,1.50
2022-09-15T15:41:06.270Z,0.90
2022-09-15T15:51:06.614Z,0.70
2022-09-15T16:01:06.661Z,0.80
2022-09-15T16:11:06.924Z,0.50
2022-09-15T16:21:07.140Z,0.40
2022-09-15T16:31:07.547Z,0.50
2022-09-15T16:41:07.562Z,0.60
2022-09-15T16:51:28.678Z,0.70
2022-09-15T17:01:08.976Z,0.80
2022-09-15T17:11:08.250Z,1.20
2022-09-15T17:21:08.460Z,1.30
2022-09-15T17:31:08.785Z,1.40
2022-09-15T17:41:08.697Z,1.20
2022-09-15T17:51:08.945Z,1.40
2022-09-15T18:01:09.551Z,1.50
2022-09-15T18:11:09.371Z,1.80
2022-09-15T18:21:09.681Z,1.00
2022-09-15T18:31:09.791Z,1.10
2022-09-15T18:41:09.900Z,0.90
2022-09-15T18:51:09.917Z,1.30
2022-09-15T19:01:10.213Z,1.70
2022-09-15T19:11:10.348Z,1.80
2022-09-15T19:21:10.520Z,2.20
2022-09-15T19:31:10.668Z,2.10
2022-09-15T19:41:10.806Z,2.30
2022-09-15T19:51:10.763Z,1.70
2022-09-15T20:01:10.886Z,1.80
2022-09-15T20:11:10.906Z,2.10
2022-09-15T20:21:21.767Z,2.50
2022-09-15T20:31:12.482Z,3.30
2022-09-15T20:41:11.505Z,4.00
2022-09-15T20:51:11.814Z,4.20
2022-09-15T21:01:11.882Z,5.20
2022-09-15T21:11:12.061Z,5.60
2022-09-15T21:21:12.083Z,5.00
2022-09-15T21:31:12.422Z,4.00
2022-09-15T21:41:12.456Z,3.60
2022-09-15T21:51:12.759Z,4.30
2022-09-15T22:01:12.939Z,3.90
2022-09-15T22:11:13.110Z,3.90
2022-09-15T22:21:13.132Z,3.50
2022-09-15T22:31:13.475Z,4.70
2022-09-15T22:41:13.544Z,7.80
2022-09-15T22:51:13.805Z,5.60
2022-09-15T23:01:14.073Z,6.70
2022-09-15T23:11:14.151Z,4.50
2022-09-15T23:21:14.380Z,3.70
2022-09-15T23:31:14.818Z,2.10
2022-09-15T23:41:14.850Z,2.30
2022-09-15T23:51:15.231Z,2.90
